Savoonga Airport
PASA : now visible

Airfield :











YOU CAN JOIN US ON...

 
LOGIN :

Register | Disclaimer

   EN    FR    IT 

 









Legend :    VFR   Marginal VFR   IFR   Intensive IFR   Very Intensive IFR
Visi :
Ceiling :
>= 8 km
>= 3000ft
5 to 8 km
1000 to 3000 ft
1500m to 5 km
500 to 1000 ft
800 to 1500m
200 to 500 ft
< 800m
< 200 ft
Symbols :   Thunderstorms  Fog  Heavy snow  Heavy precipitations  Wind > 20 kt






- Airport Elevation : 53 ft
- IATA code : SVA


PASA - Savoonga

CURRENT METAR :
  • 210956Z AUTO 18013KT 9SM FEW003 OVC048 06/05 A3059 RMK AO2 SLP360 T00560050

EXPIRED METARs :
  • 210856Z AUTO VRB03KT 10SM FEW004 BKN046 06/05 A3059 RMK AO2 SLP357 T00560050 400670011 51007
  • 210835Z AUTO 20008KT 10SM SCT004 BKN048 05/04 A3058 RMK AO2
  • 210756Z AUTO 24008KT 10SM BKN004 OVC048 06/05 A3058 RMK AO2 SLP355 T00560050
  • 210746Z AUTO 21009KT 10SM SCT004 OVC046 06/05 A3058 RMK AO2

TAF N/A
PAZA FIR / North America



MET'MAP, your aeronautical weather chart ! - Copyright ORBIFLY December 2007 - Disclaimer

ORBIFLY MET'MAP TEAM :

Programming & Development : Alexandra Zaïnal
Concept & original design : Baudouin d'Aumeries
Assistance for programming : Marc-Olivier Méhu
Technical & hardware support : Manuel Goepfert

Contact : metmap@orbifly.com




SOURCES & CREDITS :

   NOAA       Earth
Advisory